sensor_id;sensor_type;location;lat;lon;timestamp;temperature;humidity
11320;DHT22;5715;48.234;14.320;2023-03-30T00:01:05;5.90;99.90
11320;DHT22;5715;48.234;14.320;2023-03-30T00:03:58;5.90;99.90
11320;DHT22;5715;48.234;14.320;2023-03-30T00:06:46;5.90;99.90
11320;DHT22;5715;48.234;14.320;2023-03-30T00:09:34;5.90;99.90
11320;DHT22;5715;48.234;14.320;2023-03-30T00:12:28;5.80;99.90
11320;DHT22;5715;48.234;14.320;2023-03-30T00:15:19;5.80;99.90
11320;DHT22;5715;48.234;14.320;2023-03-30T00:18:07;5.90;99.90
11320;DHT22;5715;48.234;14.320;2023-03-30T00:20:56;5.90;99.90
11320;DHT22;5715;48.234;14.320;2023-03-30T00:23:49;5.90;99.90
11320;DHT22;5715;48.234;14.320;2023-03-30T00:26:38;5.90;99.90
11320;DHT22;5715;48.234;14.320;2023-03-30T00:29:28;5.80;99.90
11320;DHT22;5715;48.234;14.320;2023-03-30T00:32:16;5.80;99.90
11320;DHT22;5715;48.234;14.320;2023-03-30T00:35:04;5.80;99.90
11320;DHT22;5715;48.234;14.320;2023-03-30T00:37:52;5.80;99.90
11320;DHT22;5715;48.234;14.320;2023-03-30T00:40:39;5.80;99.90
11320;DHT22;5715;48.234;14.320;2023-03-30T00:43:27;5.80;99.90
11320;DHT22;5715;48.234;14.320;2023-03-30T00:46:15;5.80;99.90
11320;DHT22;5715;48.234;14.320;2023-03-30T00:49:05;5.70;99.90
11320;DHT22;5715;48.234;14.320;2023-03-30T00:51:56;5.70;99.90
11320;DHT22;5715;48.234;14.320;2023-03-30T00:54:45;5.80;99.90
11320;DHT22;5715;48.234;14.320;2023-03-30T00:57:36;5.80;99.90
11320;DHT22;5715;48.234;14.320;2023-03-30T01:00:25;5.80;99.90
11320;DHT22;5715;48.234;14.320;2023-03-30T01:03:30;5.80;99.90
11320;DHT22;5715;48.234;14.320;2023-03-30T01:06:21;5.70;99.90
11320;DHT22;5715;48.234;14.320;2023-03-30T01:09:15;5.70;99.90
11320;DHT22;5715;48.234;14.320;2023-03-30T01:12:03;5.60;99.90
11320;DHT22;5715;48.234;14.320;2023-03-30T01:14:51;5.70;99.90
11320;DHT22;5715;48.234;14.320;2023-03-30T01:21:00;5.80;99.90
11320;DHT22;5715;48.234;14.320;2023-03-30T01:34:15;5.80;99.90
11320;DHT22;5715;48.234;14.320;2023-03-30T01:40:41;5.70;99.90
11320;DHT22;5715;48.234;14.320;2023-03-30T01:44:12;5.80;99.90
11320;DHT22;5715;48.234;14.320;2023-03-30T01:50:40;5.70;99.90
11320;DHT22;5715;48.234;14.320;2023-03-30T01:57:15;5.70;99.90
11320;DHT22;5715;48.234;14.320;2023-03-30T02:00:14;5.70;99.90
11320;DHT22;5715;48.234;14.320;2023-03-30T02:03:14;5.70;99.90
11320;DHT22;5715;48.234;14.320;2023-03-30T02:06:22;5.70;99.90
11320;DHT22;5715;48.234;14.320;2023-03-30T02:09:18;5.70;99.90
11320;DHT22;5715;48.234;14.320;2023-03-30T02:12:10;5.60;99.90
11320;DHT22;5715;48.234;14.320;2023-03-30T02:15:03;5.60;99.90
11320;DHT22;5715;48.234;14.320;2023-03-30T02:17:56;5.60;99.90
11320;DHT22;5715;48.234;14.320;2023-03-30T02:20:44;5.60;99.90
11320;DHT22;5715;48.234;14.320;2023-03-30T02:23:37;5.60;99.90
11320;DHT22;5715;48.234;14.320;2023-03-30T02:26:28;5.50;99.90
11320;DHT22;5715;48.234;14.320;2023-03-30T02:29:18;5.50;99.90
11320;DHT22;5715;48.234;14.320;2023-03-30T02:32:47;5.50;99.90
11320;DHT22;5715;48.234;14.320;2023-03-30T02:48:53;5.80;99.90
11320;DHT22;5715;48.234;14.320;2023-03-30T02:51:48;5.80;99.90
11320;DHT22;5715;48.234;14.320;2023-03-30T02:54:55;5.80;99.90
11320;DHT22;5715;48.234;14.320;2023-03-30T03:04:21;6.00;99.90
11320;DHT22;5715;48.234;14.320;2023-03-30T03:07:11;6.00;99.90
11320;DHT22;5715;48.234;14.320;2023-03-30T03:10:00;6.00;99.90
11320;DHT22;5715;48.234;14.320;2023-03-30T03:12:48;5.90;99.90
11320;DHT22;5715;48.234;14.320;2023-03-30T03:15:36;5.90;99.90
11320;DHT22;5715;48.234;14.320;2023-03-30T03:18:24;5.90;99.90
11320;DHT22;5715;48.234;14.320;2023-03-30T03:21:12;5.90;99.90
11320;DHT22;5715;48.234;14.320;2023-03-30T03:24:00;6.00;99.90
11320;DHT22;5715;48.234;14.320;2023-03-30T03:26:48;6.20;99.90
11320;DHT22;5715;48.234;14.320;2023-03-30T03:29:36;6.20;99.90
11320;DHT22;5715;48.234;14.320;2023-03-30T03:32:23;6.20;99.90
11320;DHT22;5715;48.234;14.320;2023-03-30T03:35:11;6.30;99.90
11320;DHT22;5715;48.234;14.320;2023-03-30T03:37:59;6.30;99.90
11320;DHT22;5715;48.234;14.320;2023-03-30T03:40:50;6.30;99.90
11320;DHT22;5715;48.234;14.320;2023-03-30T03:43:39;6.30;99.90
11320;DHT22;5715;48.234;14.320;2023-03-30T03:46:26;6.30;99.90
11320;DHT22;5715;48.234;14.320;2023-03-30T03:49:14;6.30;99.90
11320;DHT22;5715;48.234;14.320;2023-03-30T03:52:02;6.30;99.90
11320;DHT22;5715;48.234;14.320;2023-03-30T03:54:49;6.30;99.90
11320;DHT22;5715;48.234;14.320;2023-03-30T03:57:37;6.30;99.90
11320;DHT22;5715;48.234;14.320;2023-03-30T04:00:25;6.40;99.90
11320;DHT22;5715;48.234;14.320;2023-03-30T04:03:13;6.30;99.90
11320;DHT22;5715;48.234;14.320;2023-03-30T04:06:01;6.30;99.90
11320;DHT22;5715;48.234;14.320;2023-03-30T04:08:49;6.20;99.90
11320;DHT22;5715;48.234;14.320;2023-03-30T04:11:36;6.10;99.90
11320;DHT22;5715;48.234;14.320;2023-03-30T04:14:24;6.00;99.90
11320;DHT22;5715;48.234;14.320;2023-03-30T04:17:12;6.00;99.90
11320;DHT22;5715;48.234;14.320;2023-03-30T04:20:04;5.90;99.90
11320;DHT22;5715;48.234;14.320;2023-03-30T04:22:57;5.90;99.90
11320;DHT22;5715;48.234;14.320;2023-03-30T04:25:47;5.90;99.90
11320;DHT22;5715;48.234;14.320;2023-03-30T04:28:37;5.90;99.90
11320;DHT22;5715;48.234;14.320;2023-03-30T04:31:26;5.80;99.90
11320;DHT22;5715;48.234;14.320;2023-03-30T04:34:21;5.80;99.90
11320;DHT22;5715;48.234;14.320;2023-03-30T04:37:09;5.80;99.90
11320;DHT22;5715;48.234;14.320;2023-03-30T04:40:01;5.70;99.90
11320;DHT22;5715;48.234;14.320;2023-03-30T04:42:54;5.70;99.90
11320;DHT22;5715;48.234;14.320;2023-03-30T04:45:54;5.70;99.90
11320;DHT22;5715;48.234;14.320;2023-03-30T04:48:42;5.70;99.90
11320;DHT22;5715;48.234;14.320;2023-03-30T04:51:30;5.60;99.90
11320;DHT22;5715;48.234;14.320;2023-03-30T04:54:17;5.60;99.90
11320;DHT22;5715;48.234;14.320;2023-03-30T04:57:05;5.60;99.90
11320;DHT22;5715;48.234;14.320;2023-03-30T04:59:53;5.60;99.90
11320;DHT22;5715;48.234;14.320;2023-03-30T05:02:40;5.50;99.90
11320;DHT22;5715;48.234;14.320;2023-03-30T05:05:28;5.50;99.90
11320;DHT22;5715;48.234;14.320;2023-03-30T05:08:16;5.50;99.90
11320;DHT22;5715;48.234;14.320;2023-03-30T05:11:04;5.50;99.90
11320;DHT22;5715;48.234;14.320;2023-03-30T05:13:53;5.50;99.90
11320;DHT22;5715;48.234;14.320;2023-03-30T05:16:41;5.60;99.90
11320;DHT22;5715;48.234;14.320;2023-03-30T05:19:29;5.50;99.90
11320;DHT22;5715;48.234;14.320;2023-03-30T05:22:16;5.50;99.90
11320;DHT22;5715;48.234;14.320;2023-03-30T05:25:04;5.50;99.90
11320;DHT22;5715;48.234;14.320;2023-03-30T05:27:53;5.60;99.90
11320;DHT22;5715;48.234;14.320;2023-03-30T05:30:40;5.60;99.90
11320;DHT22;5715;48.234;14.320;2023-03-30T05:33:28;5.60;99.90
11320;DHT22;5715;48.234;14.320;2023-03-30T05:36:15;5.70;99.90
11320;DHT22;5715;48.234;14.320;2023-03-30T05:39:03;5.70;99.90
11320;DHT22;5715;48.234;14.320;2023-03-30T05:41:51;5.70;99.90
11320;DHT22;5715;48.234;14.320;2023-03-30T05:44:39;5.80;99.90
11320;DHT22;5715;48.234;14.320;2023-03-30T05:47:26;5.80;99.90
11320;DHT22;5715;48.234;14.320;2023-03-30T05:50:15;5.80;99.90
11320;DHT22;5715;48.234;14.320;2023-03-30T05:53:03;5.90;99.90
11320;DHT22;5715;48.234;14.320;2023-03-30T05:55:51;5.90;99.90
11320;DHT22;5715;48.234;14.320;2023-03-30T05:58:38;6.00;99.90
11320;DHT22;5715;48.234;14.320;2023-03-30T06:01:26;6.10;99.90
11320;DHT22;5715;48.234;14.320;2023-03-30T06:04:14;6.10;99.90
11320;DHT22;5715;48.234;14.320;2023-03-30T06:07:02;6.20;99.90
11320;DHT22;5715;48.234;14.320;2023-03-30T06:09:50;6.30;99.90
11320;DHT22;5715;48.234;14.320;2023-03-30T06:12:37;6.40;99.90
11320;DHT22;5715;48.234;14.320;2023-03-30T06:15:26;6.60;99.90
11320;DHT22;5715;48.234;14.320;2023-03-30T06:18:17;6.80;99.90
11320;DHT22;5715;48.234;14.320;2023-03-30T06:21:05;7.00;99.90
11320;DHT22;5715;48.234;14.320;2023-03-30T06:23:54;7.30;99.90
11320;DHT22;5715;48.234;14.320;2023-03-30T06:26:42;7.50;99.90
11320;DHT22;5715;48.234;14.320;2023-03-30T06:29:29;7.90;99.90
11320;DHT22;5715;48.234;14.320;2023-03-30T06:32:17;8.10;99.90
11320;DHT22;5715;48.234;14.320;2023-03-30T06:35:05;8.30;99.90
11320;DHT22;5715;48.234;14.320;2023-03-30T06:37:54;8.50;99.90
11320;DHT22;5715;48.234;14.320;2023-03-30T06:40:42;8.80;99.90
11320;DHT22;5715;48.234;14.320;2023-03-30T06:43:29;9.00;99.90
11320;DHT22;5715;48.234;14.320;2023-03-30T06:46:17;9.10;99.90
11320;DHT22;5715;48.234;14.320;2023-03-30T06:49:05;9.20;99.90
11320;DHT22;5715;48.234;14.320;2023-03-30T06:51:53;9.20;99.90
11320;DHT22;5715;48.234;14.320;2023-03-30T06:54:41;9.40;99.90
11320;DHT22;5715;48.234;14.320;2023-03-30T06:57:28;9.50;99.90
11320;DHT22;5715;48.234;14.320;2023-03-30T07:00:16;9.50;99.90
11320;DHT22;5715;48.234;14.320;2023-03-30T07:03:04;9.60;99.90
11320;DHT22;5715;48.234;14.320;2023-03-30T07:05:52;9.50;99.90
11320;DHT22;5715;48.234;14.320;2023-03-30T07:08:40;9.40;99.90
11320;DHT22;5715;48.234;14.320;2023-03-30T07:11:27;9.30;99.90
11320;DHT22;5715;48.234;14.320;2023-03-30T07:14:15;9.20;99.90
11320;DHT22;5715;48.234;14.320;2023-03-30T07:17:04;9.10;99.90
11320;DHT22;5715;48.234;14.320;2023-03-30T07:19:52;9.10;99.90
11320;DHT22;5715;48.234;14.320;2023-03-30T07:22:40;9.10;99.90
11320;DHT22;5715;48.234;14.320;2023-03-30T07:25:28;9.00;99.90
11320;DHT22;5715;48.234;14.320;2023-03-30T07:28:16;9.10;99.90
11320;DHT22;5715;48.234;14.320;2023-03-30T07:31:05;9.00;99.90
11320;DHT22;5715;48.234;14.320;2023-03-30T07:33:55;9.10;99.90
11320;DHT22;5715;48.234;14.320;2023-03-30T07:36:42;9.00;99.90
11320;DHT22;5715;48.234;14.320;2023-03-30T07:39:30;9.00;99.90
11320;DHT22;5715;48.234;14.320;2023-03-30T07:42:20;9.10;99.90
11320;DHT22;5715;48.234;14.320;2023-03-30T07:45:09;9.00;99.90
11320;DHT22;5715;48.234;14.320;2023-03-30T07:47:59;9.10;99.90
11320;DHT22;5715;48.234;14.320;2023-03-30T07:50:47;9.10;99.90
11320;DHT22;5715;48.234;14.320;2023-03-30T07:53:35;9.10;99.90
11320;DHT22;5715;48.234;14.320;2023-03-30T07:56:24;9.10;99.90
11320;DHT22;5715;48.234;14.320;2023-03-30T07:59:11;9.10;99.90
11320;DHT22;5715;48.234;14.320;2023-03-30T08:01:59;9.20;99.90
11320;DHT22;5715;48.234;14.320;2023-03-30T08:04:47;9.10;99.90
11320;DHT22;5715;48.234;14.320;2023-03-30T08:07:35;9.10;99.90
11320;DHT22;5715;48.234;14.320;2023-03-30T08:10:23;9.20;99.90
11320;DHT22;5715;48.234;14.320;2023-03-30T08:13:10;9.20;99.90
11320;DHT22;5715;48.234;14.320;2023-03-30T08:15:59;9.20;99.90
11320;DHT22;5715;48.234;14.320;2023-03-30T08:18:46;9.20;99.90
11320;DHT22;5715;48.234;14.320;2023-03-30T08:21:34;9.20;99.90
11320;DHT22;5715;48.234;14.320;2023-03-30T08:24:22;9.30;99.90
11320;DHT22;5715;48.234;14.320;2023-03-30T08:27:09;9.40;99.90
11320;DHT22;5715;48.234;14.320;2023-03-30T08:29:57;9.30;99.90
11320;DHT22;5715;48.234;14.320;2023-03-30T08:32:44;9.30;99.90
11320;DHT22;5715;48.234;14.320;2023-03-30T08:35:32;9.30;99.90
11320;DHT22;5715;48.234;14.320;2023-03-30T08:38:20;9.20;99.90
11320;DHT22;5715;48.234;14.320;2023-03-30T08:47:31;9.20;99.90
11320;DHT22;5715;48.234;14.320;2023-03-30T08:50:32;9.30;99.90
11320;DHT22;5715;48.234;14.320;2023-03-30T08:53:21;9.30;99.90
11320;DHT22;5715;48.234;14.320;2023-03-30T08:56:20;9.30;99.90
11320;DHT22;5715;48.234;14.320;2023-03-30T09:02:43;9.50;99.90
11320;DHT22;5715;48.234;14.320;2023-03-30T09:05:41;9.70;99.90
11320;DHT22;5715;48.234;14.320;2023-03-30T09:08:37;9.80;99.90
11320;DHT22;5715;48.234;14.320;2023-03-30T09:11:34;9.90;99.90
11320;DHT22;5715;48.234;14.320;2023-03-30T09:14:31;9.90;99.90
11320;DHT22;5715;48.234;14.320;2023-03-30T09:17:32;10.00;99.90
11320;DHT22;5715;48.234;14.320;2023-03-30T09:20:41;10.10;99.90
11320;DHT22;5715;48.234;14.320;2023-03-30T09:23:33;10.00;99.90
11320;DHT22;5715;48.234;14.320;2023-03-30T09:26:34;9.90;99.90
11320;DHT22;5715;48.234;14.320;2023-03-30T09:29:47;10.10;99.90
11320;DHT22;5715;48.234;14.320;2023-03-30T09:33:05;10.20;99.90
11320;DHT22;5715;48.234;14.320;2023-03-30T09:38:56;10.40;99.90
11320;DHT22;5715;48.234;14.320;2023-03-30T09:45:16;10.30;99.90
11320;DHT22;5715;48.234;14.320;2023-03-30T09:48:08;10.20;99.90
11320;DHT22;5715;48.234;14.320;2023-03-30T09:50:56;10.20;99.90
11320;DHT22;5715;48.234;14.320;2023-03-30T09:53:47;10.20;99.90
11320;DHT22;5715;48.234;14.320;2023-03-30T09:56:41;10.20;99.90
11320;DHT22;5715;48.234;14.320;2023-03-30T09:59:35;10.40;99.90
11320;DHT22;5715;48.234;14.320;2023-03-30T10:02:26;10.60;99.90
11320;DHT22;5715;48.234;14.320;2023-03-30T10:05:17;10.90;99.90
11320;DHT22;5715;48.234;14.320;2023-03-30T10:08:16;11.20;99.90
11320;DHT22;5715;48.234;14.320;2023-03-30T10:11:10;11.40;99.90
11320;DHT22;5715;48.234;14.320;2023-03-30T10:13:59;11.40;99.90
11320;DHT22;5715;48.234;14.320;2023-03-30T10:16:46;11.60;99.90
11320;DHT22;5715;48.234;14.320;2023-03-30T10:19:34;11.70;99.90
11320;DHT22;5715;48.234;14.320;2023-03-30T10:22:25;11.70;99.90
11320;DHT22;5715;48.234;14.320;2023-03-30T10:25:18;11.70;99.90
11320;DHT22;5715;48.234;14.320;2023-03-30T10:28:30;11.70;99.90
11320;DHT22;5715;48.234;14.320;2023-03-30T10:31:20;11.70;99.90
11320;DHT22;5715;48.234;14.320;2023-03-30T10:34:37;11.70;99.90
11320;DHT22;5715;48.234;14.320;2023-03-30T10:37:38;11.70;99.90
11320;DHT22;5715;48.234;14.320;2023-03-30T10:40:34;11.90;99.90
11320;DHT22;5715;48.234;14.320;2023-03-30T10:43:31;12.00;99.90
11320;DHT22;5715;48.234;14.320;2023-03-30T10:46:21;12.10;99.90
11320;DHT22;5715;48.234;14.320;2023-03-30T10:49:33;12.10;99.90
11320;DHT22;5715;48.234;14.320;2023-03-30T10:52:37;12.10;99.90
11320;DHT22;5715;48.234;14.320;2023-03-30T10:56:32;12.20;99.90
11320;DHT22;5715;48.234;14.320;2023-03-30T10:59:48;12.40;99.90
11320;DHT22;5715;48.234;14.320;2023-03-30T11:03:10;12.10;99.90
11320;DHT22;5715;48.234;14.320;2023-03-30T11:06:21;12.00;99.90
11320;DHT22;5715;48.234;14.320;2023-03-30T11:09:17;12.10;99.90
11320;DHT22;5715;48.234;14.320;2023-03-30T11:12:16;12.20;99.90
11320;DHT22;5715;48.234;14.320;2023-03-30T11:15:13;12.30;99.90
11320;DHT22;5715;48.234;14.320;2023-03-30T11:18:17;12.50;99.90
11320;DHT22;5715;48.234;14.320;2023-03-30T11:21:20;12.60;99.90
11320;DHT22;5715;48.234;14.320;2023-03-30T11:24:23;12.70;99.90
11320;DHT22;5715;48.234;14.320;2023-03-30T11:33:33;13.30;99.90
11320;DHT22;5715;48.234;14.320;2023-03-30T11:36:31;13.80;99.90
11320;DHT22;5715;48.234;14.320;2023-03-30T11:39:29;14.20;99.90
11320;DHT22;5715;48.234;14.320;2023-03-30T11:42:26;14.40;99.90
11320;DHT22;5715;48.234;14.320;2023-03-30T11:55:08;14.10;99.90
11320;DHT22;5715;48.234;14.320;2023-03-30T12:01:18;14.80;99.90
11320;DHT22;5715;48.234;14.320;2023-03-30T12:04:37;15.10;99.90
11320;DHT22;5715;48.234;14.320;2023-03-30T12:08:02;15.20;99.90
11320;DHT22;5715;48.234;14.320;2023-03-30T12:12:23;15.40;99.90
11320;DHT22;5715;48.234;14.320;2023-03-30T12:18:33;15.40;99.90
11320;DHT22;5715;48.234;14.320;2023-03-30T12:25:02;15.50;99.90
11320;DHT22;5715;48.234;14.320;2023-03-30T12:27:56;15.80;99.90
11320;DHT22;5715;48.234;14.320;2023-03-30T12:30:58;16.00;99.90
11320;DHT22;5715;48.234;14.320;2023-03-30T12:33:48;16.20;99.90
11320;DHT22;5715;48.234;14.320;2023-03-30T12:36:41;16.00;99.90
11320;DHT22;5715;48.234;14.320;2023-03-30T12:42:39;15.90;99.90
11320;DHT22;5715;48.234;14.320;2023-03-30T12:46:04;16.10;99.90
11320;DHT22;5715;48.234;14.320;2023-03-30T12:52:15;16.60;99.90
11320;DHT22;5715;48.234;14.320;2023-03-30T13:05:22;16.60;99.90
11320;DHT22;5715;48.234;14.320;2023-03-30T13:11:18;16.70;99.90
11320;DHT22;5715;48.234;14.320;2023-03-30T13:17:25;16.60;99.90
11320;DHT22;5715;48.234;14.320;2023-03-30T13:20:18;16.60;99.90
11320;DHT22;5715;48.234;14.320;2023-03-30T13:26:25;16.90;99.90
11320;DHT22;5715;48.234;14.320;2023-03-30T13:29:23;17.10;99.90
11320;DHT22;5715;48.234;14.320;2023-03-30T13:39:05;16.80;99.90
11320;DHT22;5715;48.234;14.320;2023-03-30T13:46:07;16.70;99.90
11320;DHT22;5715;48.234;14.320;2023-03-30T13:52:43;16.50;99.90
11320;DHT22;5715;48.234;14.320;2023-03-30T13:55:38;16.20;99.90
11320;DHT22;5715;48.234;14.320;2023-03-30T13:58:30;15.90;99.90
11320;DHT22;5715;48.234;14.320;2023-03-30T14:01:21;15.50;99.90
11320;DHT22;5715;48.234;14.320;2023-03-30T14:04:11;15.20;99.90
11320;DHT22;5715;48.234;14.320;2023-03-30T14:10:16;14.80;99.90
11320;DHT22;5715;48.234;14.320;2023-03-30T14:13:08;14.60;99.90
11320;DHT22;5715;48.234;14.320;2023-03-30T14:16:05;14.50;99.90
11320;DHT22;5715;48.234;14.320;2023-03-30T14:19:16;14.50;99.90
11320;DHT22;5715;48.234;14.320;2023-03-30T14:22:26;14.30;99.90
11320;DHT22;5715;48.234;14.320;2023-03-30T14:25:34;14.20;99.90
11320;DHT22;5715;48.234;14.320;2023-03-30T14:28:26;14.10;99.90
11320;DHT22;5715;48.234;14.320;2023-03-30T14:31:17;13.90;99.90
11320;DHT22;5715;48.234;14.320;2023-03-30T14:34:39;13.80;99.90
11320;DHT22;5715;48.234;14.320;2023-03-30T14:37:33;13.70;99.90
11320;DHT22;5715;48.234;14.320;2023-03-30T14:40:22;13.70;99.90
11320;DHT22;5715;48.234;14.320;2023-03-30T14:43:13;13.60;99.90
11320;DHT22;5715;48.234;14.320;2023-03-30T14:46:09;13.50;99.90
11320;DHT22;5715;48.234;14.320;2023-03-30T14:48:58;13.30;99.90
11320;DHT22;5715;48.234;14.320;2023-03-30T14:51:48;13.30;99.90
11320;DHT22;5715;48.234;14.320;2023-03-30T14:54:38;13.20;99.90
11320;DHT22;5715;48.234;14.320;2023-03-30T14:57:38;13.10;99.90
11320;DHT22;5715;48.234;14.320;2023-03-30T15:00:28;12.90;99.90
11320;DHT22;5715;48.234;14.320;2023-03-30T15:03:17;12.90;99.90
11320;DHT22;5715;48.234;14.320;2023-03-30T15:06:22;12.80;99.90
11320;DHT22;5715;48.234;14.320;2023-03-30T15:09:17;12.80;99.90
11320;DHT22;5715;48.234;14.320;2023-03-30T15:12:10;12.80;99.90
11320;DHT22;5715;48.234;14.320;2023-03-30T15:15:25;12.80;99.90
11320;DHT22;5715;48.234;14.320;2023-03-30T15:18:20;12.70;99.90
11320;DHT22;5715;48.234;14.320;2023-03-30T15:21:12;12.70;99.90
11320;DHT22;5715;48.234;14.320;2023-03-30T15:24:03;12.70;99.90
11320;DHT22;5715;48.234;14.320;2023-03-30T15:26:54;12.60;99.90
11320;DHT22;5715;48.234;14.320;2023-03-30T15:29:44;12.60;99.90
11320;DHT22;5715;48.234;14.320;2023-03-30T15:32:37;12.50;99.90
11320;DHT22;5715;48.234;14.320;2023-03-30T15:35:33;12.60;99.90
11320;DHT22;5715;48.234;14.320;2023-03-30T15:38:30;12.50;99.90
11320;DHT22;5715;48.234;14.320;2023-03-30T15:41:23;12.50;99.90
11320;DHT22;5715;48.234;14.320;2023-03-30T15:44:37;12.50;99.90
11320;DHT22;5715;48.234;14.320;2023-03-30T15:47:28;12.50;99.90
11320;DHT22;5715;48.234;14.320;2023-03-30T15:50:25;12.50;99.90
11320;DHT22;5715;48.234;14.320;2023-03-30T15:53:18;12.50;99.90
11320;DHT22;5715;48.234;14.320;2023-03-30T15:56:22;12.50;99.90
11320;DHT22;5715;48.234;14.320;2023-03-30T15:59:36;12.40;99.90
11320;DHT22;5715;48.234;14.320;2023-03-30T16:05:21;12.30;99.90
11320;DHT22;5715;48.234;14.320;2023-03-30T16:08:09;12.20;99.90
11320;DHT22;5715;48.234;14.320;2023-03-30T16:10:57;12.20;99.90
11320;DHT22;5715;48.234;14.320;2023-03-30T16:13:46;12.20;99.90
11320;DHT22;5715;48.234;14.320;2023-03-30T16:16:35;12.10;99.90
11320;DHT22;5715;48.234;14.320;2023-03-30T16:19:23;12.00;99.90
11320;DHT22;5715;48.234;14.320;2023-03-30T16:22:12;12.00;99.90
11320;DHT22;5715;48.234;14.320;2023-03-30T16:25:01;11.90;99.90
11320;DHT22;5715;48.234;14.320;2023-03-30T16:27:49;11.80;99.90
11320;DHT22;5715;48.234;14.320;2023-03-30T16:30:37;11.80;99.90
11320;DHT22;5715;48.234;14.320;2023-03-30T16:33:27;11.80;99.90
11320;DHT22;5715;48.234;14.320;2023-03-30T16:36:17;11.80;99.90
11320;DHT22;5715;48.234;14.320;2023-03-30T16:39:28;11.70;99.90
11320;DHT22;5715;48.234;14.320;2023-03-30T16:42:16;11.70;99.90
11320;DHT22;5715;48.234;14.320;2023-03-30T16:45:04;11.70;99.90
11320;DHT22;5715;48.234;14.320;2023-03-30T16:47:53;11.70;99.90
11320;DHT22;5715;48.234;14.320;2023-03-30T16:50:44;11.70;99.90
11320;DHT22;5715;48.234;14.320;2023-03-30T16:53:35;11.60;99.90
11320;DHT22;5715;48.234;14.320;2023-03-30T16:56:23;11.70;99.90
11320;DHT22;5715;48.234;14.320;2023-03-30T16:59:24;11.60;99.90
11320;DHT22;5715;48.234;14.320;2023-03-30T17:02:13;11.60;99.90
11320;DHT22;5715;48.234;14.320;2023-03-30T17:05:05;11.60;99.90
11320;DHT22;5715;48.234;14.320;2023-03-30T17:07:54;11.60;99.90
11320;DHT22;5715;48.234;14.320;2023-03-30T17:10:42;11.50;99.90
11320;DHT22;5715;48.234;14.320;2023-03-30T17:13:30;11.50;99.90
11320;DHT22;5715;48.234;14.320;2023-03-30T17:16:18;11.50;99.90
11320;DHT22;5715;48.234;14.320;2023-03-30T17:19:09;11.50;99.90
11320;DHT22;5715;48.234;14.320;2023-03-30T17:21:58;11.50;99.90
11320;DHT22;5715;48.234;14.320;2023-03-30T17:24:46;11.50;99.90
11320;DHT22;5715;48.234;14.320;2023-03-30T17:27:34;11.40;99.90
11320;DHT22;5715;48.234;14.320;2023-03-30T17:30:28;11.40;99.90
11320;DHT22;5715;48.234;14.320;2023-03-30T17:33:19;11.40;99.90
11320;DHT22;5715;48.234;14.320;2023-03-30T17:36:19;11.40;99.90
11320;DHT22;5715;48.234;14.320;2023-03-30T17:39:12;11.30;99.90
11320;DHT22;5715;48.234;14.320;2023-03-30T17:42:00;11.30;99.90
11320;DHT22;5715;48.234;14.320;2023-03-30T17:44:48;11.30;99.90
11320;DHT22;5715;48.234;14.320;2023-03-30T17:47:35;11.30;99.90
11320;DHT22;5715;48.234;14.320;2023-03-30T17:50:29;11.30;99.90
11320;DHT22;5715;48.234;14.320;2023-03-30T17:53:19;11.30;99.90
11320;DHT22;5715;48.234;14.320;2023-03-30T17:56:10;11.30;99.90
11320;DHT22;5715;48.234;14.320;2023-03-30T17:58:59;11.30;99.90
11320;DHT22;5715;48.234;14.320;2023-03-30T18:01:46;11.20;99.90
11320;DHT22;5715;48.234;14.320;2023-03-30T18:04:34;11.30;99.90
11320;DHT22;5715;48.234;14.320;2023-03-30T18:07:21;11.30;99.90
11320;DHT22;5715;48.234;14.320;2023-03-30T18:10:15;11.30;99.90
11320;DHT22;5715;48.234;14.320;2023-03-30T18:13:14;11.20;99.90
11320;DHT22;5715;48.234;14.320;2023-03-30T18:16:02;11.10;99.90
11320;DHT22;5715;48.234;14.320;2023-03-30T18:18:50;11.10;99.90
11320;DHT22;5715;48.234;14.320;2023-03-30T18:21:37;11.10;99.90
11320;DHT22;5715;48.234;14.320;2023-03-30T18:24:25;11.00;99.90
11320;DHT22;5715;48.234;14.320;2023-03-30T18:27:12;11.00;99.90
11320;DHT22;5715;48.234;14.320;2023-03-30T18:30:00;10.90;99.90
11320;DHT22;5715;48.234;14.320;2023-03-30T18:32:47;10.80;99.90
11320;DHT22;5715;48.234;14.320;2023-03-30T18:35:36;10.70;99.90
11320;DHT22;5715;48.234;14.320;2023-03-30T18:38:24;10.70;99.90
11320;DHT22;5715;48.234;14.320;2023-03-30T18:41:15;10.70;99.90
11320;DHT22;5715;48.234;14.320;2023-03-30T18:44:02;10.60;99.90
11320;DHT22;5715;48.234;14.320;2023-03-30T18:46:50;10.60;99.90
11320;DHT22;5715;48.234;14.320;2023-03-30T18:49:38;10.60;99.90
11320;DHT22;5715;48.234;14.320;2023-03-30T18:52:25;10.50;99.90
11320;DHT22;5715;48.234;14.320;2023-03-30T18:55:15;10.50;99.90
11320;DHT22;5715;48.234;14.320;2023-03-30T18:58:04;10.40;99.90
11320;DHT22;5715;48.234;14.320;2023-03-30T19:00:58;10.40;99.90
11320;DHT22;5715;48.234;14.320;2023-03-30T19:03:46;10.30;99.90
11320;DHT22;5715;48.234;14.320;2023-03-30T19:06:35;10.30;99.90
11320;DHT22;5715;48.234;14.320;2023-03-30T19:09:23;10.20;99.90
11320;DHT22;5715;48.234;14.320;2023-03-30T19:12:28;10.20;99.90
11320;DHT22;5715;48.234;14.320;2023-03-30T19:15:22;10.20;99.90
11320;DHT22;5715;48.234;14.320;2023-03-30T19:18:12;10.30;99.90
11320;DHT22;5715;48.234;14.320;2023-03-30T19:21:01;10.40;99.90
11320;DHT22;5715;48.234;14.320;2023-03-30T19:23:50;10.60;99.90
11320;DHT22;5715;48.234;14.320;2023-03-30T19:26:38;10.60;99.90
11320;DHT22;5715;48.234;14.320;2023-03-30T19:29:27;10.70;99.90
11320;DHT22;5715;48.234;14.320;2023-03-30T19:32:14;10.80;99.90
11320;DHT22;5715;48.234;14.320;2023-03-30T19:35:03;10.80;99.90
11320;DHT22;5715;48.234;14.320;2023-03-30T19:37:51;10.80;99.90
11320;DHT22;5715;48.234;14.320;2023-03-30T19:40:40;10.80;99.90
11320;DHT22;5715;48.234;14.320;2023-03-30T19:43:29;10.70;99.90
11320;DHT22;5715;48.234;14.320;2023-03-30T19:46:16;10.70;99.90
11320;DHT22;5715;48.234;14.320;2023-03-30T19:49:05;10.70;99.90
11320;DHT22;5715;48.234;14.320;2023-03-30T19:51:52;10.60;99.90
11320;DHT22;5715;48.234;14.320;2023-03-30T19:54:40;10.60;99.90
11320;DHT22;5715;48.234;14.320;2023-03-30T19:57:28;10.50;99.90
11320;DHT22;5715;48.234;14.320;2023-03-30T20:00:17;10.50;99.90
11320;DHT22;5715;48.234;14.320;2023-03-30T20:03:06;10.60;99.90
11320;DHT22;5715;48.234;14.320;2023-03-30T20:05:53;10.60;99.90
11320;DHT22;5715;48.234;14.320;2023-03-30T20:08:42;10.70;99.90
11320;DHT22;5715;48.234;14.320;2023-03-30T20:11:30;10.70;99.90
11320;DHT22;5715;48.234;14.320;2023-03-30T20:14:17;10.80;99.90
11320;DHT22;5715;48.234;14.320;2023-03-30T20:17:05;10.80;99.90
11320;DHT22;5715;48.234;14.320;2023-03-30T20:19:56;10.80;99.90
11320;DHT22;5715;48.234;14.320;2023-03-30T20:22:44;10.70;99.90
11320;DHT22;5715;48.234;14.320;2023-03-30T20:25:31;10.50;99.90
11320;DHT22;5715;48.234;14.320;2023-03-30T20:28:19;10.40;99.90
11320;DHT22;5715;48.234;14.320;2023-03-30T20:31:07;10.20;99.90